createdAt,value
2019-04-10T06:42:53.151Z,54.70
2019-04-10T06:45:21.838Z,55.20
2019-04-10T06:47:51.110Z,53.10
2019-04-10T06:50:21.075Z,53.00
2019-04-10T06:52:51.325Z,52.60
2019-04-10T06:55:21.629Z,51.90
2019-04-10T06:57:56.307Z,51.50
2019-04-10T07:00:22.995Z,51.70
2019-04-10T07:02:52.672Z,51.30
2019-04-10T07:05:22.224Z,51.50
2019-04-10T07:07:56.654Z,51.00
2019-04-10T07:10:30.679Z,51.00
2019-04-10T07:12:53.579Z,50.70
2019-04-10T07:15:24.125Z,51.00
2019-04-10T07:17:55.449Z,50.80
2019-04-10T07:20:26.046Z,51.40
2019-04-10T07:22:56.690Z,51.30
2019-04-10T07:25:26.337Z,51.20
2019-04-10T07:27:56.160Z,51.00
2019-04-10T07:30:26.629Z,50.90
2019-04-10T07:32:56.395Z,50.80
2019-04-10T07:35:25.799Z,51.40
2019-04-10T07:37:56.957Z,51.20
2019-04-10T07:40:26.029Z,50.80
2019-04-10T07:42:55.180Z,51.40
2019-04-10T07:45:27.237Z,50.80
2019-04-10T07:47:55.958Z,50.80
2019-04-10T07:50:26.108Z,50.80
2019-04-10T07:52:55.655Z,50.90
2019-04-10T07:55:25.372Z,50.90
2019-04-10T07:57:55.221Z,51.90
2019-04-10T08:00:25.403Z,51.50
2019-04-10T08:02:55.576Z,51.90
2019-04-10T08:05:25.095Z,51.70
2019-04-10T08:07:55.897Z,51.80
2019-04-10T08:10:26.416Z,51.10
2019-04-10T08:12:56.105Z,51.70
2019-04-10T08:15:25.305Z,51.90
2019-04-10T08:17:54.419Z,51.90
2019-04-10T08:20:24.025Z,52.10
2019-04-10T08:22:53.393Z,51.60
2019-04-10T08:25:22.857Z,51.60
2019-04-10T08:27:52.349Z,52.20
2019-04-10T08:30:21.668Z,52.10
2019-04-10T08:32:57.170Z,51.70
2019-04-10T08:35:23.020Z,51.60
2019-04-10T08:37:52.773Z,52.20
2019-04-10T08:40:23.144Z,51.70
2019-04-10T08:42:52.665Z,52.10
2019-04-10T08:45:22.149Z,52.30
2019-04-10T08:47:51.522Z,52.30
2019-04-10T08:50:21.746Z,52.00
2019-04-10T08:52:51.082Z,52.30
2019-04-10T08:55:20.452Z,52.30
2019-04-10T08:57:50.258Z,52.10
2019-04-10T09:00:20.571Z,52.50
2019-04-10T09:02:50.547Z,52.10
2019-04-10T09:05:20.059Z,52.40
2019-04-10T09:07:49.199Z,52.50
2019-04-10T09:10:18.587Z,52.40
2019-04-10T09:12:47.980Z,52.50
2019-04-10T09:15:18.182Z,52.50
2019-04-10T09:17:47.495Z,52.50
2019-04-10T09:20:16.671Z,52.20
2019-04-10T09:23:10.614Z,51.80
2019-04-10T09:25:17.910Z,52.30
2019-04-10T09:27:47.459Z,52.00
2019-04-10T09:30:16.853Z,52.90
2019-04-10T09:32:46.543Z,52.60
2019-04-10T09:35:16.327Z,51.90
2019-04-10T09:37:46.321Z,52.40
2019-04-10T09:40:16.234Z,51.70
2019-04-10T09:42:45.949Z,52.30
2019-04-10T09:45:15.618Z,51.60
2019-04-10T09:47:45.817Z,52.40
2019-04-10T09:50:15.230Z,52.20
2019-04-10T09:52:44.402Z,53.00
2019-04-10T09:55:13.956Z,52.40
2019-04-10T09:57:43.522Z,52.20
2019-04-10T10:00:13.729Z,51.90
2019-04-10T10:02:43.128Z,51.70
2019-04-10T10:05:12.586Z,51.90
2019-04-10T10:07:43.060Z,52.00
2019-04-10T10:10:12.782Z,52.00
2019-04-10T10:12:42.850Z,52.10
2019-04-10T10:15:13.389Z,52.10
2019-04-10T10:17:42.697Z,52.20
2019-04-10T10:20:11.873Z,51.90
2019-04-10T10:22:41.218Z,51.70
2019-04-10T10:25:11.148Z,51.90
2019-04-10T10:27:40.802Z,52.00
2019-04-10T10:30:11.512Z,52.10
2019-04-10T10:32:42.269Z,51.40
2019-04-10T10:35:11.975Z,51.70
2019-04-10T10:37:41.163Z,51.50
2019-04-10T10:40:10.369Z,51.80
2019-04-10T10:42:41.473Z,51.80
2019-04-10T10:45:12.340Z,51.50
2019-04-10T10:47:41.895Z,51.60
2019-04-10T10:50:11.082Z,51.10
2019-04-10T10:52:41.727Z,51.50
2019-04-10T10:55:11.688Z,51.50
2019-04-10T10:57:41.571Z,51.10
2019-04-10T11:00:13.233Z,51.00
2019-04-10T11:02:43.650Z,51.00
2019-04-10T11:05:12.847Z,51.30
2019-04-10T11:07:42.910Z,51.10
2019-04-10T11:10:12.614Z,51.10
2019-04-10T11:12:42.359Z,51.10
2019-04-10T11:15:12.340Z,51.10
2019-04-10T11:17:42.175Z,51.10
2019-04-10T11:20:12.673Z,51.10
2019-04-10T11:22:42.522Z,51.10
2019-04-10T11:25:12.253Z,51.10
2019-04-10T11:27:42.112Z,51.10
2019-04-10T11:30:13.689Z,51.20
2019-04-10T11:32:44.339Z,51.20
2019-04-10T11:35:15.587Z,51.10
2019-04-10T11:37:48.338Z,51.30
2019-04-10T11:40:17.982Z,51.20
2019-04-10T11:42:47.139Z,51.10
2019-04-10T11:45:19.033Z,51.60
2019-04-10T11:47:50.782Z,51.70
2019-04-10T11:50:18.936Z,50.90
2019-04-10T11:52:53.186Z,50.80
2019-04-10T11:55:21.329Z,50.80
2019-04-10T11:57:51.561Z,50.80
2019-04-10T12:00:49.199Z,51.00
2019-04-10T12:03:12.782Z,51.50
2019-04-10T12:05:42.455Z,49.90
2019-04-10T12:13:16.459Z,47.50
2019-04-10T12:15:45.021Z,47.10
2019-04-10T12:18:14.429Z,47.90
2019-04-10T12:20:43.569Z,47.60
2019-04-10T12:23:13.520Z,46.90
2019-04-10T12:25:43.036Z,47.00
2019-04-10T12:28:12.179Z,47.00
2019-04-10T12:30:41.716Z,47.20
2019-04-10T12:33:11.691Z,46.20
2019-04-10T12:35:40.986Z,46.00
2019-04-10T12:38:11.736Z,45.60
2019-04-10T12:40:40.996Z,45.80
2019-04-10T12:43:10.531Z,45.40
2019-04-10T12:45:40.297Z,45.50
2019-04-10T12:48:10.440Z,45.60
2019-04-10T12:50:41.187Z,46.50
2019-04-10T12:53:11.473Z,46.00
2019-04-10T12:55:41.820Z,46.30
2019-04-10T12:58:15.895Z,45.70
2019-04-10T13:00:42.872Z,46.40
2019-04-10T13:03:12.297Z,45.50
2019-04-10T13:05:41.491Z,45.50
2019-04-10T13:08:19.038Z,45.30
2019-04-10T13:10:43.394Z,45.50
2019-04-10T13:13:13.628Z,45.30
2019-04-10T13:15:43.590Z,45.00
2019-04-10T13:18:12.920Z,45.10
2019-04-10T13:20:42.066Z,45.20
2019-04-10T13:23:13.522Z,45.20
2019-04-10T13:25:42.819Z,45.90
2019-04-10T13:28:12.944Z,45.30
2019-04-10T13:30:50.666Z,44.90
2019-04-10T13:33:14.200Z,45.20
2019-04-10T13:35:43.755Z,44.70
2019-04-10T13:38:23.278Z,44.80
2019-04-10T13:40:43.851Z,44.80
2019-04-10T13:43:13.758Z,45.40
2019-04-10T13:45:43.821Z,44.80
2019-04-10T13:48:14.283Z,45.00
2019-04-10T13:50:43.934Z,45.00
2019-04-10T13:53:13.450Z,45.90
2019-04-10T13:55:42.879Z,45.50
2019-04-10T13:58:12.025Z,45.50
2019-04-10T14:00:42.950Z,45.30
2019-04-10T14:03:12.368Z,44.90
2019-04-10T14:05:41.521Z,45.40
2019-04-10T14:08:10.933Z,45.50
2019-04-10T14:10:41.821Z,45.20
2019-04-10T14:13:11.584Z,45.10
2019-04-10T14:15:42.141Z,45.60
2019-04-10T14:18:12.287Z,45.50
2019-04-10T14:20:41.777Z,45.60
2019-04-10T14:23:14.969Z,45.40
2019-04-10T14:26:02.283Z,45.50
2019-04-10T14:28:33.605Z,45.50
2019-04-10T14:31:04.422Z,45.40
2019-04-10T14:33:33.598Z,45.30
2019-04-10T14:36:03.405Z,45.80
2019-04-10T14:38:32.874Z,46.20
2019-04-10T14:41:03.315Z,45.80
2019-04-10T14:43:32.773Z,46.20
2019-04-10T14:46:02.664Z,45.50
2019-04-10T14:48:32.229Z,45.60
2019-04-10T14:51:01.612Z,45.70
2019-04-10T14:53:31.162Z,45.40
2019-04-10T14:56:00.505Z,45.00
2019-04-10T14:58:31.340Z,44.60
2019-04-10T15:01:00.525Z,44.80
2019-04-10T15:03:30.683Z,44.40
2019-04-10T15:06:02.291Z,45.10
2019-04-10T15:08:31.480Z,45.30
2019-04-10T15:11:00.756Z,45.90
2019-04-10T15:13:30.218Z,44.20
2019-04-10T15:15:59.359Z,44.10
2019-04-10T15:18:28.848Z,44.60
2019-04-10T15:20:58.568Z,44.60
2019-04-10T15:23:28.002Z,43.40
2019-04-10T15:25:57.567Z,43.30
2019-04-10T15:28:27.471Z,43.20
2019-04-10T15:30:57.224Z,42.10
2019-04-10T15:33:26.697Z,42.10
2019-04-10T15:35:55.996Z,42.10
2019-04-10T15:38:26.208Z,42.10
2019-04-10T15:40:56.800Z,41.80
2019-04-10T15:43:26.756Z,42.10
2019-04-10T15:45:56.997Z,41.60
2019-04-10T15:48:27.167Z,41.40
2019-04-10T15:50:56.472Z,42.00
2019-04-10T15:53:26.500Z,41.10
2019-04-10T15:55:56.018Z,40.70
2019-04-10T15:58:25.661Z,41.20
2019-04-10T16:00:55.078Z,40.70
2019-04-10T16:03:24.224Z,40.50
2019-04-10T16:05:53.601Z,40.50
2019-04-10T16:08:24.655Z,40.10
2019-04-10T16:10:58.320Z,39.70
2019-04-10T16:13:30.340Z,39.50
2019-04-10T16:16:02.891Z,39.90
2019-04-10T16:18:32.569Z,39.50
2019-04-10T16:21:02.213Z,40.30
2019-04-10T16:23:42.172Z,39.70
2019-04-10T16:26:11.847Z,39.30
2019-04-10T16:28:40.994Z,39.30
2019-04-10T16:31:10.931Z,39.60
2019-04-10T16:33:41.332Z,39.40
2019-04-10T16:36:10.721Z,39.50
2019-04-10T16:38:40.654Z,39.20
2019-04-10T16:41:10.140Z,39.20
2019-04-10T16:43:40.410Z,39.50
2019-04-10T16:46:09.864Z,39.10
2019-04-10T16:48:40.023Z,39.10
2019-04-10T16:51:10.069Z,35.40
2019-04-10T16:53:39.305Z,36.60
2019-04-10T16:56:09.510Z,41.40
2019-04-10T16:58:38.911Z,40.80
2019-04-10T17:01:08.432Z,40.80
2019-04-10T17:03:38.015Z,41.60
2019-04-10T17:06:08.219Z,41.80
2019-04-10T17:08:38.865Z,43.00
2019-04-10T17:11:09.163Z,43.70
2019-04-10T17:13:38.682Z,44.20
2019-04-10T17:16:07.981Z,44.50
2019-04-10T17:18:37.325Z,45.00
2019-04-10T17:21:06.481Z,45.30
2019-04-10T17:23:36.405Z,45.40
2019-04-10T17:26:06.623Z,46.00
2019-04-10T17:28:36.468Z,46.10
2019-04-10T17:31:07.404Z,46.40
2019-04-10T17:33:38.327Z,47.00
2019-04-10T17:36:07.941Z,47.20
2019-04-10T17:38:38.514Z,47.20
2019-04-10T17:41:09.166Z,48.70
2019-04-10T17:43:38.540Z,48.20
2019-04-10T17:46:09.103Z,49.40
2019-04-10T17:48:40.051Z,50.10
2019-04-10T17:51:09.968Z,50.10
2019-04-10T17:53:39.993Z,50.60
2019-04-10T17:56:09.438Z,50.20
2019-04-10T17:58:38.603Z,50.50
2019-04-10T18:01:16.695Z,50.70
2019-04-10T18:03:53.138Z,50.80
2019-04-10T18:06:17.405Z,50.80
2019-04-10T18:08:47.236Z,50.80
2019-04-10T18:11:16.876Z,50.90
2019-04-10T18:13:46.880Z,50.90
2019-04-10T18:16:16.268Z,50.90
2019-04-10T18:18:46.947Z,51.00
2019-04-10T18:21:16.951Z,51.10
2019-04-10T18:23:47.367Z,51.60
2019-04-10T18:26:20.285Z,51.80
2019-04-10T18:28:47.731Z,51.30
2019-04-10T18:31:17.157Z,51.90
2019-04-10T18:33:46.929Z,51.40
2019-04-10T18:36:17.465Z,51.80
2019-04-10T18:38:47.908Z,52.10
2019-04-10T18:41:17.847Z,52.10
2019-04-10T18:43:47.151Z,52.00
2019-04-10T18:46:19.421Z,50.90
2019-04-10T18:48:48.134Z,50.90
2019-04-10T18:51:18.104Z,50.90
2019-04-10T18:53:47.443Z,50.90
2019-04-10T18:56:16.733Z,50.90
2019-04-10T18:58:56.574Z,51.10
2019-04-10T19:01:45.496Z,51.10
2019-04-10T19:04:16.366Z,51.10
2019-04-10T19:06:51.098Z,51.10
2019-04-10T19:09:25.084Z,51.10
2019-04-10T19:11:52.854Z,51.20
2019-04-10T19:14:22.559Z,51.10
2019-04-10T19:16:52.859Z,51.20
2019-04-10T19:19:22.279Z,51.20
2019-04-10T19:21:51.534Z,51.10
2019-04-10T19:24:22.313Z,51.20
2019-04-10T19:26:51.677Z,51.20
2019-04-10T19:29:21.379Z,51.50
2019-04-10T19:31:52.467Z,51.20
2019-04-10T19:34:21.614Z,51.20
2019-04-10T19:36:50.772Z,50.90
2019-04-10T19:39:20.241Z,50.70
2019-04-10T19:41:49.586Z,53.00
2019-04-10T19:44:19.075Z,54.00
2019-04-10T19:46:48.460Z,55.40
2019-04-10T19:49:17.629Z,56.90
2019-04-10T19:51:46.806Z,59.00
2019-04-10T19:54:15.971Z,59.30
2019-04-10T19:56:45.136Z,61.30
2019-04-10T19:59:14.549Z,62.30
2019-04-10T20:01:44.570Z,63.20
2019-04-10T20:04:14.498Z,63.30
2019-04-10T20:06:44.750Z,65.20
2019-04-10T20:09:14.497Z,65.60
2019-04-10T20:11:49.670Z,66.60
2019-04-10T20:14:15.460Z,66.40
2019-04-10T20:16:45.405Z,67.00
2019-04-10T20:19:15.206Z,68.40
2019-04-10T20:21:44.302Z,68.00
2019-04-10T20:24:13.571Z,68.90
2019-04-10T20:26:43.399Z,69.50
2019-04-10T20:29:12.994Z,69.90
2019-04-10T20:31:43.528Z,70.60
2019-04-10T20:34:13.642Z,70.50
2019-04-10T20:36:43.149Z,71.30
2019-04-10T20:39:14.803Z,71.90
2019-04-10T20:41:51.180Z,71.50
2019-04-10T20:44:15.071Z,72.60
2019-04-10T20:46:44.521Z,73.20
2019-04-10T20:49:14.263Z,73.10
2019-04-10T20:51:44.030Z,72.90
2019-04-10T20:54:13.396Z,73.20
2019-04-10T20:56:43.236Z,74.00
2019-04-10T20:59:12.776Z,72.90
2019-04-10T21:01:41.942Z,71.90
2019-04-10T21:04:11.066Z,71.90
2019-04-10T21:06:41.959Z,72.40
2019-04-10T21:09:11.782Z,73.00
2019-04-10T21:11:41.851Z,73.80
2019-04-10T21:14:12.215Z,73.60
2019-04-10T21:16:42.151Z,74.30
2019-04-10T21:19:12.811Z,73.70
2019-04-10T21:21:43.348Z,74.60
2019-04-10T21:24:13.354Z,75.60
2019-04-10T21:26:42.631Z,76.70
2019-04-10T21:29:13.468Z,76.90
2019-04-10T21:31:53.178Z,76.20
2019-04-10T21:34:24.131Z,76.70
2019-04-10T21:36:53.425Z,77.40
2019-04-10T21:39:22.581Z,77.00
2019-04-10T21:41:51.768Z,78.00
2019-04-10T21:44:20.903Z,78.50
2019-04-10T21:46:50.050Z,78.20
2019-04-10T21:49:19.827Z,78.60
2019-04-10T21:51:49.498Z,78.60
2019-04-10T21:54:18.751Z,77.70
2019-04-10T21:56:47.945Z,77.70
2019-04-10T21:59:17.056Z,77.90
2019-04-10T22:01:46.663Z,78.00
2019-04-10T22:04:16.843Z,78.40
2019-04-10T22:06:47.716Z,78.80
2019-04-10T22:09:36.941Z,78.90
2019-04-10T22:12:23.277Z,79.40
2019-04-10T22:14:41.841Z,79.10
2019-04-10T22:17:12.749Z,79.80
2019-04-10T22:19:43.076Z,79.00
2019-04-10T22:22:12.810Z,79.70
2019-04-10T22:24:42.618Z,79.70
2019-04-10T22:27:12.200Z,79.80
2019-04-10T22:29:41.367Z,79.80
2019-04-10T22:32:10.781Z,79.60
2019-04-10T22:34:39.915Z,79.40
2019-04-10T22:37:09.897Z,79.00
2019-04-10T22:39:39.632Z,80.00
2019-04-10T22:42:09.284Z,79.80
2019-04-10T22:44:42.533Z,79.70
2019-04-10T22:47:09.291Z,79.10
2019-04-10T22:49:39.285Z,78.30
2019-04-10T22:52:08.901Z,76.70
2019-04-10T22:54:38.848Z,76.10
2019-04-10T22:57:08.104Z,73.90
2019-04-10T22:59:38.243Z,72.60
2019-04-10T23:02:11.731Z,71.60
2019-04-10T23:04:39.139Z,71.10
2019-04-10T23:07:09.378Z,71.00
2019-04-10T23:09:38.604Z,70.50
2019-04-10T23:12:07.921Z,70.50
2019-04-10T23:14:37.164Z,70.40
2019-04-10T23:17:06.458Z,70.40
2019-04-10T23:19:36.335Z,70.50
2019-04-10T23:22:07.233Z,70.50
2019-04-10T23:24:36.524Z,70.80
2019-04-10T23:27:05.975Z,70.00
2019-04-10T23:29:36.084Z,70.70
2019-04-10T23:32:05.872Z,70.80
2019-04-10T23:34:35.302Z,70.70
2019-04-10T23:37:04.777Z,69.90
2019-04-10T23:39:34.455Z,71.00
2019-04-10T23:42:04.868Z,70.30
2019-04-10T23:44:35.877Z,70.30
2019-04-10T23:47:05.483Z,70.60
2019-04-10T23:49:35.353Z,70.90
2019-04-10T23:52:04.635Z,70.60
2019-04-10T23:54:33.795Z,70.90
2019-04-10T23:57:03.240Z,70.10
2019-04-10T23:59:32.983Z,70.80
